F/V Mare Liberum — FVHW — position and weather

sailwx.info

Track history (hours):
 
Tides and Currents Weather Stations Pressure Air Temp Water Temp Dewpoint Dewpoint Depression Visibility Wind Speed Wind Dir Waves Ship Positions

F/V Mare Liberum

Last reported at 2015-Jan-26 03:30 UTC. Time now 2015-Jan-29 06:25 UTC.
Position N 46°20' W 002°04'.

Length 21 m.

Type: Fishing. MMSI: 227426000.

Date/timePositionNaut miles runAvg speedWind from/ knotsBaromVisibWave heightAir tempDewpointWater temp
2015-Jan-26 03:30N 46°20' W 002°04'9 9.5
2015-Jan-26 02:33N 46°28' W 002°09'10 9.5
2015-Jan-26 01:32N 46°37' W 002°13'  
2015-Jan-23 05:16N 46°26' W 002°19'0 0.3
2015-Jan-23 03:31N 46°26' W 002°18'2 0.8
2015-Jan-23 01:28N 46°26' W 002°21'0 0.1
2015-Jan-23 00:27N 46°26' W 002°21'0 0.0
2015-Jan-22 23:18N 46°26' W 002°21'0 0.1
2015-Jan-22 22:33N 46°26' W 002°21'0 0.0
2015-Jan-22 18:29N 46°26' W 002°21'1 0.1
2015-Jan-22 05:07N 46°26' W 002°19'17 9.7
2015-Jan-22 03:24N 46°43' W 002°17'17 1.2
2015-Jan-21 13:10N 46°26' W 002°19'2 1.3
2015-Jan-21 11:26N 46°24' W 002°17'2 0.5
2015-Jan-21 06:26N 46°26' W 002°20'2 0.1
2015-Jan-20 06:03N 46°24' W 002°18'  
Track history (hours):
 
Tides and Currents Weather Stations Pressure Air Temp Water Temp Dewpoint Dewpoint Depression Visibility Wind Speed Wind Dir Waves Ship Positions

F/V Mare Liberum

Last reported at 2015-Jan-26 03:30 UTC. Time now 2015-Jan-29 06:25 UTC.
Position N 46°20' W 002°04'.

Length 21 m.

Type: Fishing. MMSI: 227426000.

Date/timePositionNaut miles runAvg speedWind from/ knotsBaromVisibWave heightAir tempDewpointWater temp
2015-Jan-26 03:30N 46°20' W 002°04'9 9.5
2015-Jan-26 02:33N 46°28' W 002°09'10 9.5
2015-Jan-26 01:32N 46°37' W 002°13'  
2015-Jan-23 05:16N 46°26' W 002°19'0 0.3
2015-Jan-23 03:31N 46°26' W 002°18'2 0.8
2015-Jan-23 01:28N 46°26' W 002°21'0 0.1
2015-Jan-23 00:27N 46°26' W 002°21'0 0.0
2015-Jan-22 23:18N 46°26' W 002°21'0 0.1
2015-Jan-22 22:33N 46°26' W 002°21'0 0.0
2015-Jan-22 18:29N 46°26' W 002°21'1 0.1
2015-Jan-22 05:07N 46°26' W 002°19'17 9.7
2015-Jan-22 03:24N 46°43' W 002°17'17 1.2
2015-Jan-21 13:10N 46°26' W 002°19'2 1.3
2015-Jan-21 11:26N 46°24' W 002°17'2 0.5
2015-Jan-21 06:26N 46°26' W 002°20'2 0.1
2015-Jan-20 06:03N 46°24' W 002°18'  

Dump ship's entire track history